QLK440 YBBN-YAYE
Flight info
| Callsign | QLK440 |
|---|---|
| Flight time | N/A |
| Altitude | 36000 |
| Route | BN V250 LEBIT V412 ROM T11 PULOL Q36 ANGAS V656 AYE |
| Aircraft | A320/M-SDE3FGHIRWY/LB1 |
Departure
| Time | N/A |
|---|---|
| Airport | Brisbane International Airport (YBBN) |
Arrival
| Time | 2026-04-16 02:39 |
|---|---|
| Airport | Ayers Rock Connellan Airport (YAYE) |
| Time | Latitude | Longitude | Altitude | Speed | Heading |
|---|---|---|---|---|---|
| 2026-04-16 00:55 | -26.53114 | 148.68516 | 36189 ft | 384 kts | 278° |
| 2026-04-16 00:55 | -26.52291 | 148.62550 | 36192 ft | 385 kts | 278° |
| 2026-04-16 00:56 | -26.50733 | 148.50818 | 36191 ft | 385 kts | 278° |
| 2026-04-16 00:56 | -26.49177 | 148.39011 | 36190 ft | 384 kts | 278° |
| 2026-04-16 00:57 | -26.46827 | 148.21299 | 36185 ft | 384 kts | 278° |
| 2026-04-16 00:58 | -26.45231 | 148.09493 | 36178 ft | 384 kts | 278° |
| 2026-04-16 00:58 | -26.43646 | 147.97692 | 36182 ft | 385 kts | 278° |
| 2026-04-16 00:59 | -26.42049 | 147.85882 | 36200 ft | 384 kts | 278° |
| 2026-04-16 00:59 | -26.40446 | 147.74126 | 36188 ft | 383 kts | 278° |
| 2026-04-16 01:00 | -26.38821 | 147.62386 | 36181 ft | 382 kts | 278° |
| 2026-04-16 01:00 | -26.37205 | 147.50652 | 36185 ft | 383 kts | 279° |
| 2026-04-16 01:01 | -26.35582 | 147.38998 | 36182 ft | 383 kts | 279° |
| 2026-04-16 01:01 | -26.33938 | 147.27278 | 36178 ft | 383 kts | 279° |
| 2026-04-16 01:02 | -26.32294 | 147.15531 | 36176 ft | 383 kts | 279° |
| 2026-04-16 01:02 | -26.30619 | 147.03815 | 36170 ft | 382 kts | 279° |
| 2026-04-16 01:03 | -26.28950 | 146.92115 | 36173 ft | 382 kts | 279° |
| 2026-04-16 01:03 | -26.27266 | 146.80400 | 36171 ft | 383 kts | 279° |
| 2026-04-16 01:04 | -26.25578 | 146.68758 | 36172 ft | 383 kts | 279° |
| 2026-04-16 01:04 | -26.23893 | 146.57048 | 36174 ft | 383 kts | 279° |
| 2026-04-16 01:05 | -26.22184 | 146.45339 | 36178 ft | 383 kts | 279° |
| 2026-04-16 01:05 | -26.20465 | 146.33630 | 36179 ft | 383 kts | 279° |
| 2026-04-16 01:06 | -26.18732 | 146.21943 | 36171 ft | 383 kts | 279° |
| 2026-04-16 01:06 | -26.16992 | 146.10215 | 36170 ft | 383 kts | 279° |
| 2026-04-16 01:07 | -26.15241 | 145.98506 | 36169 ft | 383 kts | 280° |
| 2026-04-16 01:07 | -26.13498 | 145.86887 | 36165 ft | 383 kts | 280° |
| 2026-04-16 01:08 | -26.11730 | 145.75211 | 36157 ft | 383 kts | 280° |
| 2026-04-16 01:08 | -26.09937 | 145.63518 | 36158 ft | 383 kts | 280° |
| 2026-04-16 01:09 | -26.08171 | 145.51823 | 36151 ft | 383 kts | 280° |
| 2026-04-16 01:09 | -26.06368 | 145.40133 | 36156 ft | 384 kts | 281° |
| 2026-04-16 01:10 | -26.04555 | 145.28437 | 36164 ft | 384 kts | 280° |
| 2026-04-16 01:10 | -26.02863 | 145.17487 | 37277 ft | 389 kts | 280° |
| 2026-04-16 01:10 | -26.01930 | 145.11515 | 36101 ft | 398 kts | 280° |
| 2026-04-16 01:11 | -26.00997 | 145.05514 | 36100 ft | 387 kts | 281° |
| 2026-04-16 01:11 | -25.99153 | 144.93870 | 36088 ft | 384 kts | 281° |
| 2026-04-16 01:12 | -25.97293 | 144.82163 | 36116 ft | 384 kts | 281° |
| 2026-04-16 01:12 | -25.95452 | 144.70461 | 36141 ft | 385 kts | 281° |
| 2026-04-16 01:13 | -25.93593 | 144.58752 | 36135 ft | 385 kts | 281° |
| 2026-04-16 01:13 | -25.91712 | 144.47027 | 36140 ft | 385 kts | 281° |
| 2026-04-16 01:14 | -25.89803 | 144.35315 | 36140 ft | 386 kts | 281° |
| 2026-04-16 01:14 | -25.87900 | 144.23566 | 36146 ft | 387 kts | 281° |
| 2026-04-16 01:15 | -25.85985 | 144.11810 | 36156 ft | 387 kts | 281° |
| 2026-04-16 01:15 | -25.84041 | 144.00070 | 36154 ft | 387 kts | 281° |
| 2026-04-16 01:16 | -25.82119 | 143.88403 | 36150 ft | 386 kts | 282° |
| 2026-04-16 01:16 | -25.80167 | 143.76672 | 36146 ft | 387 kts | 282° |
| 2026-04-16 01:17 | -25.78203 | 143.64923 | 36154 ft | 388 kts | 282° |
| 2026-04-16 01:17 | -25.76229 | 143.53177 | 36166 ft | 387 kts | 282° |
| 2026-04-16 01:18 | -25.74251 | 143.41437 | 36153 ft | 387 kts | 282° |
| 2026-04-16 01:18 | -25.72258 | 143.29688 | 36144 ft | 387 kts | 282° |
| 2026-04-16 01:19 | -25.70266 | 143.17946 | 36142 ft | 387 kts | 282° |
| 2026-04-16 01:19 | -25.68250 | 143.06207 | 36150 ft | 388 kts | 282° |
| 2026-04-16 01:20 | -25.66217 | 142.94458 | 36140 ft | 388 kts | 282° |
| 2026-04-16 01:20 | -25.64188 | 142.82703 | 36139 ft | 387 kts | 282° |
| 2026-04-16 01:21 | -25.62145 | 142.70969 | 36132 ft | 388 kts | 282° |
| 2026-04-16 01:21 | -25.60101 | 142.59247 | 36140 ft | 388 kts | 282° |
| 2026-04-16 01:22 | -25.58033 | 142.47501 | 36124 ft | 388 kts | 283° |
| 2026-04-16 01:22 | -25.55959 | 142.35769 | 36137 ft | 389 kts | 283° |
| 2026-04-16 01:23 | -25.53881 | 142.24013 | 36121 ft | 389 kts | 283° |
| 2026-04-16 01:23 | -25.51791 | 142.12274 | 36130 ft | 389 kts | 283° |
| 2026-04-16 01:24 | -25.49686 | 142.00508 | 36131 ft | 390 kts | 283° |
| 2026-04-16 01:24 | -25.47575 | 141.88814 | 36129 ft | 390 kts | 283° |
| 2026-04-16 01:25 | -25.45462 | 141.77061 | 36110 ft | 389 kts | 283° |
| 2026-04-16 01:25 | -25.43328 | 141.65334 | 36112 ft | 389 kts | 283° |
| 2026-04-16 01:26 | -25.41174 | 141.53587 | 36137 ft | 390 kts | 283° |
| 2026-04-16 01:26 | -25.39021 | 141.41828 | 36129 ft | 390 kts | 283° |
| 2026-04-16 01:27 | -25.36867 | 141.30098 | 36122 ft | 389 kts | 283° |
| 2026-04-16 01:27 | -25.34689 | 141.18384 | 36111 ft | 388 kts | 283° |
| 2026-04-16 01:28 | -25.32519 | 141.06660 | 36108 ft | 390 kts | 283° |
| 2026-04-16 01:28 | -25.30327 | 140.94967 | 36114 ft | 391 kts | 284° |
| 2026-04-16 01:29 | -25.28114 | 140.83138 | 36112 ft | 391 kts | 284° |
| 2026-04-16 01:29 | -25.25904 | 140.71454 | 36111 ft | 391 kts | 284° |
| 2026-04-16 01:30 | -25.23663 | 140.59700 | 36100 ft | 391 kts | 284° |
| 2026-04-16 01:30 | -25.21436 | 140.47915 | 36105 ft | 392 kts | 284° |
| 2026-04-16 01:31 | -25.19183 | 140.36120 | 36108 ft | 392 kts | 284° |
| 2026-04-16 01:31 | -25.16920 | 140.24341 | 36099 ft | 392 kts | 284° |
| 2026-04-16 01:32 | -25.15028 | 140.14553 | 36100 ft | 393 kts | 284° |
| 2026-04-16 01:32 | -25.12741 | 140.02753 | 36118 ft | 394 kts | 284° |
| 2026-04-16 01:33 | -25.10445 | 139.90938 | 36116 ft | 394 kts | 284° |
| 2026-04-16 01:33 | -25.08143 | 139.79192 | 36121 ft | 394 kts | 284° |
| 2026-04-16 01:34 | -25.05816 | 139.67367 | 36101 ft | 394 kts | 284° |
| 2026-04-16 01:34 | -25.03493 | 139.55559 | 36119 ft | 393 kts | 284° |
| 2026-04-16 01:35 | -25.01171 | 139.43787 | 36126 ft | 393 kts | 284° |
| 2026-04-16 01:35 | -24.98835 | 139.31997 | 36115 ft | 393 kts | 284° |
| 2026-04-16 01:36 | -24.96477 | 139.20254 | 36115 ft | 392 kts | 284° |
| 2026-04-16 01:36 | -24.94124 | 139.08488 | 36112 ft | 393 kts | 285° |
| 2026-04-16 01:37 | -24.91755 | 138.96731 | 36112 ft | 394 kts | 284° |
| 2026-04-16 01:37 | -24.89394 | 138.85035 | 36116 ft | 393 kts | 285° |
| 2026-04-16 01:38 | -24.87005 | 138.73268 | 36122 ft | 393 kts | 285° |
| 2026-04-16 01:38 | -24.84594 | 138.61485 | 36118 ft | 394 kts | 285° |
| 2026-04-16 01:39 | -24.82191 | 138.49709 | 36114 ft | 395 kts | 285° |
| 2026-04-16 01:39 | -24.79753 | 138.37921 | 36127 ft | 395 kts | 285° |
| 2026-04-16 01:40 | -24.77322 | 138.26134 | 36135 ft | 394 kts | 285° |
| 2026-04-16 01:40 | -24.74877 | 138.14363 | 36124 ft | 395 kts | 285° |
| 2026-04-16 01:41 | -24.72430 | 138.02608 | 36124 ft | 395 kts | 285° |
| 2026-04-16 01:41 | -24.69968 | 137.90827 | 36124 ft | 394 kts | 285° |
| 2026-04-16 01:42 | -24.67512 | 137.79146 | 36146 ft | 394 kts | 285° |
| 2026-04-16 01:42 | -24.65045 | 137.67444 | 36131 ft | 392 kts | 285° |
| 2026-04-16 01:43 | -24.62560 | 137.55771 | 36129 ft | 391 kts | 285° |
| 2026-04-16 01:43 | -24.60088 | 137.44122 | 36128 ft | 391 kts | 285° |
| 2026-04-16 01:44 | -24.57603 | 137.32459 | 36122 ft | 392 kts | 285° |
| 2026-04-16 01:44 | -24.55088 | 137.20774 | 36119 ft | 393 kts | 285° |
| 2026-04-16 01:45 | -24.52578 | 137.09082 | 36121 ft | 393 kts | 285° |
| 2026-04-16 01:45 | -24.50047 | 136.97387 | 36129 ft | 393 kts | 285° |
| 2026-04-16 01:46 | -24.47513 | 136.85694 | 36141 ft | 394 kts | 285° |
| 2026-04-16 01:46 | -24.45862 | 136.73838 | 36119 ft | 402 kts | 266° |
| 2026-04-16 01:47 | -24.47933 | 136.61799 | 36122 ft | 404 kts | 264° |
| 2026-04-16 01:47 | -24.50013 | 136.49591 | 36147 ft | 404 kts | 264° |
| 2026-04-16 01:48 | -24.52049 | 136.37524 | 36143 ft | 404 kts | 264° |
| 2026-04-16 01:48 | -24.54114 | 136.25390 | 36143 ft | 404 kts | 264° |
| 2026-04-16 01:49 | -24.56164 | 136.13255 | 36163 ft | 404 kts | 264° |
| 2026-04-16 01:49 | -24.58140 | 136.01382 | 36158 ft | 403 kts | 264° |
| 2026-04-16 01:50 | -24.59156 | 135.95332 | 36147 ft | 402 kts | 264° |
| 2026-04-16 01:50 | -24.60160 | 135.89280 | 36149 ft | 403 kts | 264° |
| 2026-04-16 01:51 | -24.61163 | 135.83224 | 36154 ft | 403 kts | 264° |
| 2026-04-16 01:51 | -24.62156 | 135.77171 | 36148 ft | 403 kts | 264° |
| 2026-04-16 01:52 | -24.63146 | 135.71156 | 36164 ft | 403 kts | 265° |
| 2026-04-16 01:52 | -24.64147 | 135.65102 | 36162 ft | 402 kts | 265° |
| 2026-04-16 01:53 | -24.65140 | 135.59059 | 36158 ft | 402 kts | 265° |
| 2026-04-16 01:53 | -24.66124 | 135.53025 | 36159 ft | 401 kts | 265° |
| 2026-04-16 01:54 | -24.67112 | 135.46981 | 36155 ft | 402 kts | 265° |
| 2026-04-16 01:54 | -24.68098 | 135.40935 | 36157 ft | 402 kts | 265° |
| 2026-04-16 01:55 | -24.69082 | 135.34889 | 36153 ft | 402 kts | 265° |
| 2026-04-16 01:55 | -24.70064 | 135.28844 | 36173 ft | 401 kts | 265° |
| 2026-04-16 01:56 | -24.71038 | 135.22801 | 36172 ft | 401 kts | 265° |
| 2026-04-16 01:56 | -24.72002 | 135.16772 | 36168 ft | 400 kts | 265° |
| 2026-04-16 01:57 | -24.72969 | 135.10737 | 36161 ft | 401 kts | 265° |
| 2026-04-16 01:57 | -24.73944 | 135.04711 | 36164 ft | 400 kts | 265° |
| 2026-04-16 01:58 | -24.74910 | 134.98674 | 36169 ft | 400 kts | 265° |
| 2026-04-16 01:58 | -24.75865 | 134.92649 | 36168 ft | 400 kts | 265° |
| 2026-04-16 01:59 | -24.76821 | 134.86624 | 36167 ft | 399 kts | 265° |
| 2026-04-16 01:59 | -24.77774 | 134.80604 | 36161 ft | 399 kts | 265° |
| 2026-04-16 02:00 | -24.78732 | 134.74588 | 36162 ft | 399 kts | 265° |
| 2026-04-16 02:00 | -24.79682 | 134.68569 | 36165 ft | 399 kts | 265° |
| 2026-04-16 02:01 | -24.80623 | 134.62586 | 36165 ft | 399 kts | 265° |
| 2026-04-16 02:01 | -24.81570 | 134.56562 | 36167 ft | 399 kts | 265° |
| 2026-04-16 02:02 | -24.82511 | 134.50551 | 36158 ft | 398 kts | 265° |
| 2026-04-16 02:02 | -24.83443 | 134.44545 | 36158 ft | 398 kts | 265° |
| 2026-04-16 02:03 | -24.84381 | 134.38532 | 36161 ft | 398 kts | 265° |
| 2026-04-16 02:03 | -24.85316 | 134.32511 | 36154 ft | 399 kts | 265° |
| 2026-04-16 02:04 | -24.86717 | 134.23484 | 36158 ft | 398 kts | 265° |
| 2026-04-16 02:04 | -24.87647 | 134.17473 | 36140 ft | 398 kts | 265° |
| 2026-04-16 02:05 | -24.88568 | 134.11454 | 36144 ft | 398 kts | 265° |
| 2026-04-16 02:05 | -24.89489 | 134.05430 | 36150 ft | 399 kts | 265° |
| 2026-04-16 02:06 | -24.90410 | 133.99398 | 36157 ft | 399 kts | 266° |
| 2026-04-16 02:06 | -24.91322 | 133.93398 | 36156 ft | 400 kts | 266° |
| 2026-04-16 02:07 | -24.92241 | 133.87354 | 36159 ft | 400 kts | 265° |
| 2026-04-16 02:07 | -24.93162 | 133.81318 | 36162 ft | 400 kts | 266° |
| 2026-04-16 02:08 | -24.94075 | 133.75290 | 36159 ft | 399 kts | 266° |
| 2026-04-16 02:08 | -24.94981 | 133.69251 | 36156 ft | 399 kts | 266° |
| 2026-04-16 02:09 | -24.95885 | 133.63223 | 36154 ft | 399 kts | 266° |
| 2026-04-16 02:09 | -24.96791 | 133.57182 | 36167 ft | 399 kts | 266° |
| 2026-04-16 02:10 | -24.97696 | 133.51152 | 36160 ft | 398 kts | 266° |
| 2026-04-16 02:10 | -24.98589 | 133.45166 | 36159 ft | 398 kts | 266° |
| 2026-04-16 02:11 | -24.99482 | 133.39152 | 36171 ft | 397 kts | 266° |
| 2026-04-16 02:11 | -25.00372 | 133.33147 | 36161 ft | 397 kts | 266° |
| 2026-04-16 02:12 | -25.01260 | 133.27144 | 36155 ft | 397 kts | 266° |
| 2026-04-16 02:12 | -25.02152 | 133.21136 | 36163 ft | 397 kts | 266° |
| 2026-04-16 02:13 | -25.03038 | 133.15136 | 36163 ft | 396 kts | 266° |
| 2026-04-16 02:13 | -25.03910 | 133.09128 | 36137 ft | 397 kts | 266° |
| 2026-04-16 02:14 | -25.04782 | 133.03123 | 36130 ft | 397 kts | 266° |
| 2026-04-16 02:14 | -25.05659 | 132.97106 | 36150 ft | 397 kts | 266° |
| 2026-04-16 02:15 | -25.06530 | 132.91095 | 36151 ft | 397 kts | 266° |
| 2026-04-16 02:15 | -25.07405 | 132.85086 | 36150 ft | 396 kts | 266° |
| 2026-04-16 02:16 | -25.08275 | 132.79082 | 36145 ft | 397 kts | 266° |
| 2026-04-16 02:16 | -25.09137 | 132.73076 | 36149 ft | 396 kts | 266° |
| 2026-04-16 02:17 | -25.09992 | 132.67099 | 36149 ft | 396 kts | 266° |
| 2026-04-16 02:17 | -25.10708 | 132.62074 | 36147 ft | 396 kts | 266° |
| 2026-04-16 02:18 | -25.11567 | 132.56072 | 36161 ft | 396 kts | 266° |
| 2026-04-16 02:18 | -25.12422 | 132.50078 | 36155 ft | 395 kts | 266° |
| 2026-04-16 02:19 | -25.13246 | 132.44088 | 36044 ft | 393 kts | 269° |
| 2026-04-16 02:19 | -25.13387 | 132.41094 | 35797 ft | 390 kts | 272° |
| 2026-04-16 02:19 | -25.13474 | 132.38108 | 35572 ft | 389 kts | 271° |
| 2026-04-16 02:20 | -25.13564 | 132.35158 | 35342 ft | 389 kts | 271° |
| 2026-04-16 02:20 | -25.13656 | 132.32177 | 35111 ft | 389 kts | 271° |
| 2026-04-16 02:20 | -25.13750 | 132.29192 | 34875 ft | 390 kts | 271° |
| 2026-04-16 02:20 | -25.13847 | 132.26203 | 34658 ft | 390 kts | 271° |
| 2026-04-16 02:21 | -25.13942 | 132.23200 | 34436 ft | 390 kts | 271° |
| 2026-04-16 02:21 | -25.14035 | 132.20209 | 34216 ft | 391 kts | 271° |
| 2026-04-16 02:21 | -25.14252 | 132.17214 | 33951 ft | 393 kts | 264° |
| 2026-04-16 02:21 | -25.14702 | 132.14232 | 33689 ft | 395 kts | 264° |
| 2026-04-16 02:22 | -25.15168 | 132.11236 | 33433 ft | 397 kts | 264° |
| 2026-04-16 02:22 | -25.15645 | 132.08226 | 33174 ft | 397 kts | 264° |
| 2026-04-16 02:22 | -25.16123 | 132.05224 | 32422 ft | 395 kts | 264° |
| 2026-04-16 02:22 | -25.16601 | 132.02209 | 30771 ft | 405 kts | 264° |
| 2026-04-16 02:23 | -25.17089 | 131.99098 | 28932 ft | 417 kts | 264° |
| 2026-04-16 02:23 | -25.17586 | 131.95905 | 27125 ft | 427 kts | 264° |
| 2026-04-16 02:23 | -25.18085 | 131.92680 | 25715 ft | 426 kts | 264° |
| 2026-04-16 02:23 | -25.18584 | 131.89464 | 24470 ft | 424 kts | 264° |
| 2026-04-16 02:24 | -25.19084 | 131.86268 | 23237 ft | 420 kts | 264° |
| 2026-04-16 02:24 | -25.19581 | 131.83105 | 21946 ft | 416 kts | 263° |
| 2026-04-16 02:24 | -25.20065 | 131.80016 | 20748 ft | 412 kts | 263° |
| 2026-04-16 02:24 | -25.20546 | 131.76915 | 19577 ft | 408 kts | 263° |
| 2026-04-16 02:25 | -25.21020 | 131.73840 | 18481 ft | 404 kts | 263° |
| 2026-04-16 02:25 | -25.21490 | 131.70790 | 17285 ft | 402 kts | 263° |
| 2026-04-16 02:25 | -25.21957 | 131.67761 | 16160 ft | 399 kts | 262° |
| 2026-04-16 02:25 | -25.22419 | 131.64743 | 15139 ft | 397 kts | 262° |
| 2026-04-16 02:26 | -25.22875 | 131.61749 | 14147 ft | 394 kts | 262° |
| 2026-04-16 02:26 | -25.23332 | 131.58766 | 13055 ft | 392 kts | 261° |
| 2026-04-16 02:26 | -25.23783 | 131.55813 | 12006 ft | 388 kts | 261° |
| 2026-04-16 02:26 | -25.24219 | 131.52926 | 11548 ft | 369 kts | 261° |
| 2026-04-16 02:27 | -25.24628 | 131.50243 | 11433 ft | 340 kts | 261° |
| 2026-04-16 02:27 | -25.25008 | 131.47771 | 11310 ft | 313 kts | 261° |
| 2026-04-16 02:27 | -25.25361 | 131.45462 | 10932 ft | 299 kts | 261° |
| 2026-04-16 02:27 | -25.25703 | 131.43213 | 10412 ft | 295 kts | 261° |
| 2026-04-16 02:28 | -25.26041 | 131.40987 | 10194 ft | 291 kts | 261° |
| 2026-04-16 02:28 | -25.26375 | 131.38777 | 10048 ft | 291 kts | 261° |
| 2026-04-16 02:28 | -25.26704 | 131.36572 | 9755 ft | 292 kts | 261° |
| 2026-04-16 02:28 | -25.27036 | 131.34344 | 9295 ft | 295 kts | 261° |
| 2026-04-16 02:29 | -25.27372 | 131.32107 | 8873 ft | 291 kts | 260° |
| 2026-04-16 02:29 | -25.27693 | 131.29962 | 8747 ft | 275 kts | 260° |
| 2026-04-16 02:29 | -25.27996 | 131.27938 | 8620 ft | 260 kts | 260° |
| 2026-04-16 02:29 | -25.28282 | 131.26037 | 8401 ft | 250 kts | 260° |
| 2026-04-16 02:30 | -25.28570 | 131.24156 | 8032 ft | 247 kts | 260° |
| 2026-04-16 02:30 | -25.28860 | 131.22266 | 7604 ft | 246 kts | 259° |
| 2026-04-16 02:30 | -25.29142 | 131.20411 | 7204 ft | 244 kts | 260° |
| 2026-04-16 02:30 | -25.29417 | 131.18582 | 6805 ft | 243 kts | 260° |
| 2026-04-16 02:31 | -25.29690 | 131.16741 | 6404 ft | 242 kts | 259° |
| 2026-04-16 02:31 | -25.29960 | 131.14921 | 5962 ft | 239 kts | 259° |
| 2026-04-16 02:31 | -25.30572 | 131.13242 | 5511 ft | 236 kts | 231° |
| 2026-04-16 02:31 | -25.31865 | 131.12156 | 5033 ft | 237 kts | 200° |
| 2026-04-16 02:32 | -25.33494 | 131.11927 | 4515 ft | 239 kts | 177° |
| 2026-04-16 02:32 | -25.35115 | 131.12269 | 4068 ft | 236 kts | 151° |
| 2026-04-16 02:32 | -25.36289 | 131.13467 | 3976 ft | 230 kts | 117° |
| 2026-04-16 02:32 | -25.36714 | 131.15126 | 3998 ft | 225 kts | 90° |
| 2026-04-16 02:33 | -25.36435 | 131.16800 | 4000 ft | 223 kts | 63° |
| 2026-04-16 02:33 | -25.35486 | 131.18124 | 4004 ft | 221 kts | 36° |
| 2026-04-16 02:33 | -25.34094 | 131.18772 | 3998 ft | 220 kts | 4° |
| 2026-04-16 02:33 | -25.32614 | 131.18442 | 3991 ft | 222 kts | 330° |
| 2026-04-16 02:34 | -25.31513 | 131.17254 | 3988 ft | 225 kts | 303° |
| 2026-04-16 02:34 | -25.30913 | 131.15654 | 3988 ft | 227 kts | 289° |
| 2026-04-16 02:34 | -25.30428 | 131.13988 | 3988 ft | 228 kts | 292° |
| 2026-04-16 02:34 | -25.29670 | 131.12488 | 3982 ft | 217 kts | 310° |
| 2026-04-16 02:35 | -25.28742 | 131.11254 | 3986 ft | 204 kts | 311° |
| 2026-04-16 02:35 | -25.27862 | 131.10079 | 4029 ft | 196 kts | 311° |
| 2026-04-16 02:35 | -25.26994 | 131.08921 | 3858 ft | 194 kts | 310° |
| 2026-04-16 02:35 | -25.26151 | 131.07796 | 3648 ft | 183 kts | 311° |
| 2026-04-16 02:36 | -25.25360 | 131.06735 | 3457 ft | 175 kts | 311° |
| 2026-04-16 02:36 | -25.24595 | 131.05713 | 3268 ft | 169 kts | 311° |
| 2026-04-16 02:36 | -25.23876 | 131.04754 | 3058 ft | 154 kts | 311° |
| 2026-04-16 02:36 | -25.23209 | 131.03864 | 2810 ft | 148 kts | 311° |
| 2026-04-16 02:37 | -25.22549 | 131.02991 | 2634 ft | 148 kts | 311° |
| 2026-04-16 02:37 | -25.21890 | 131.02121 | 2455 ft | 147 kts | 311° |
| 2026-04-16 02:37 | -25.21243 | 131.01254 | 2260 ft | 146 kts | 311° |
| 2026-04-16 02:37 | -25.20601 | 131.00395 | 2034 ft | 144 kts | 311° |
| 2026-04-16 02:38 | -25.19957 | 130.99533 | 1861 ft | 146 kts | 311° |
| 2026-04-16 02:38 | -25.19315 | 130.98678 | 1656 ft | 144 kts | 312° |
| 2026-04-16 02:38 | -25.18724 | 130.97894 | 1621 ft | 112 kts | 309° |
| 2026-04-16 02:38 | -25.18342 | 130.97383 | 1625 ft | 63 kts | 309° |
| 2026-04-16 02:39 | -25.18120 | 130.97089 | 1620 ft | 47 kts | 309° |
| 2026-04-16 02:39 | -25.17944 | 130.96854 | 1622 ft | 31 kts | 309° |
| 2026-04-16 02:39 | -25.17857 | 130.96711 | 1624 ft | 15 kts | 278° |
| 2026-04-16 02:39 | -25.17834 | 130.96712 | 1624 ft | 9 kts | 125° |
| 2026-04-16 02:40 | -25.17883 | 130.96773 | 1624 ft | 13 kts | 129° |
| 2026-04-16 02:40 | -25.17951 | 130.96863 | 1623 ft | 18 kts | 130° |
| 2026-04-16 02:40 | -25.18043 | 130.96986 | 1621 ft | 24 kts | 129° |
| 2026-04-16 02:40 | -25.18156 | 130.97135 | 1623 ft | 26 kts | 129° |
| 2026-04-16 02:41 | -25.18269 | 130.97287 | 1624 ft | 26 kts | 130° |
| 2026-04-16 02:41 | -25.18385 | 130.97442 | 1628 ft | 26 kts | 130° |
| 2026-04-16 02:41 | -25.18506 | 130.97600 | 1626 ft | 27 kts | 130° |
| 2026-04-16 02:41 | -25.18629 | 130.97765 | 1625 ft | 28 kts | 129° |
| 2026-04-16 02:42 | -25.18723 | 130.97885 | 1620 ft | 13 kts | 142° |
| 2026-04-16 02:42 | -25.18801 | 130.97852 | 1621 ft | 14 kts | 219° |
| 2026-04-16 02:42 | -25.18883 | 130.97779 | 1623 ft | 16 kts | 219° |
| 2026-04-16 02:42 | -25.18956 | 130.97723 | 1621 ft | 10 kts | 190° |
| 2026-04-16 02:43 | -25.19010 | 130.97773 | 1623 ft | 11 kts | 129° |
| 2026-04-16 02:43 | -25.19051 | 130.97826 | 1625 ft | 7 kts | 142° |
| 2026-04-16 02:43 | -25.19075 | 130.97810 | 1624 ft | 4 kts | 262° |
| 2026-04-16 02:43 | -25.19076 | 130.97790 | 1619 ft | 1 kts | 265° |
| 2026-04-16 02:44 | -25.19077 | 130.97780 | 1621 ft | 0 kts | 265° |